This is the latest recevied weather packets stored in our database for station/object DB5ZQ. If no packets are shown the sender has not sent any weather packets the latest 10 day(s).
| Time | Temp. | Humidity | Pressure | Rain* | Wind** | Luminosity | Snow |
|---|---|---|---|---|---|---|---|
| 1787415001 | 25° C | 40% | 1016.4 hPa | 0 mm | - | - | - |
| 1787414700 | 25° C | 40% | 1016.4 hPa | 0 mm | - | - | - |
| 1787414400 | 25.56° C | 41% | 1016.3 hPa | 0 mm | - | - | - |
| 1787414100 | 25° C | 44% | 1016.2 hPa | 0 mm | - | - | - |
| 1787413800 | 25° C | 46% | 1016.3 hPa | 0 mm | - | - | - |
| 1787413499 | 24.44° C | 46% | 1016.2 hPa | 0 mm | - | - | - |
| 1787413199 | 23.89° C | 48% | 1016.3 hPa | 0 mm | - | - | - |
| 1787412899 | 23.33° C | 49% | 1016.2 hPa | 0 mm | - | - | - |
| 1787412598 | 22.22° C | 53% | 1016.1 hPa | 0 mm | - | - | - |
| 1787412298 | 21.67° C | 56% | 1016.2 hPa | 0 mm | - | - | - |
| 1787411998 | 21.67° C | 55% | 1016.2 hPa | 0 mm | - | - | - |
| 1787411698 | 21.67° C | 55% | 1016.3 hPa | 0 mm | - | - | - |
| 1787411398 | 21.11° C | 54% | 1016.2 hPa | 0 mm | - | - | - |
| 1787411097 | 21.11° C | 54% | 1016.3 hPa | 0 mm | - | - | - |
| 1787410797 | 21.67° C | 54% | 1016.3 hPa | 0 mm | - | - | - |
| 1787410497 | 21.67° C | 52% | 1016.2 hPa | 0 mm | - | - | - |
| 1787410196 | 22.22° C | 50% | 1016.1 hPa | 0 mm | - | - | - |
| 1787409896 | 22.22° C | 49% | 1015.9 hPa | 0 mm | - | - | - |
| 1787409596 | 22.78° C | 49% | 1015.9 hPa | 0 mm | - | - | - |
| 1787409296 | 22.78° C | 48% | 1015.7 hPa | 0 mm | - | - | - |
| 1787408995 | 22.78° C | 47% | 1015.8 hPa | 0 mm | - | - | - |
| 1787408695 | 23.33° C | 47% | 1015.7 hPa | 0 mm | - | - | - |
| 1787408395 | 23.33° C | 46% | 1015.7 hPa | 0 mm | - | - | - |
| 1787408094 | 23.89° C | 45% | 1015.7 hPa | 0 mm | - | - | - |
| 1787407794 | 23.89° C | 44% | 1015.6 hPa | 0 mm | - | - | - |
* Rain latest hour (hover to see other rain measurements)
** Current wind speed in m/s (hover to see current wind gust speed)